Latest Weather Observations for White Cliffs AWS

IDN60801

Issued at 4:05 am EDT Monday 24 November 2014 (issued every 30 minutes, with the page automatically refreshed every 10 minutes)

About weather observations | Map of weather stations | Latest weather observations for NSW | Other Formats
Station Details ID: 046129 Name: WHITE CLIFFS AWS Lat: -30.85 Lon: 143.07 Height: 158.0 m
Data from the previous 72 hours. | See also: Recent months at White Cliffs AWS
Date/Time
EDT
Temp
°C
App
Temp
°C
Dew
Point
Rel
Hum
%
Delta-T
°C
Wind Press
QNH
hPa
Press
MSL
hPa
Rain
since 9 am
mm
Dir
 
Spd
km/h
Gust
km/h
Spd
kts
Gust
kts
24/04:00am 28.2 27.3 15.8 47 7.7 S 15 19 8 10 1011.2 1010.4 0.0
24/03:30am 29.7 27.8 13.0 35 10.0 S 15 20 8 11 1011.6 1010.8 0.0
24/03:00am 29.6 28.3 13.8 38 9.5 SSE 13 19 7 10 1011.8 1011.0 0.0
24/02:30am 30.1 28.7 13.4 36 10.0 ESE 13 20 7 11 1011.7 1010.9 0.0
24/02:00am 30.3 29.0 13.6 36 10.1 SSW 13 17 7 9 1012.0 1011.2 0.0
24/01:30am 31.0 28.3 12.8 32 10.9 SSW 19 26 10 14 1011.7 1010.9 0.0
24/01:00am 31.3 28.2 12.2 31 11.3 SW 20 26 11 14 1011.8 1011.0 0.0
24/12:30am 31.8 28.7 11.6 29 11.9 SSW 19 22 10 12 1011.4 1010.6 0.0
24/12:00am 32.1 29.3 11.3 28 12.2 S 17 20 9 11 1011.3 1010.5 0.0
 
Date/Time
EDT
Temp
°C
App
Temp
°C
Dew
Point
Rel
Hum
%
Delta-T
°C
Wind Press
QNH
hPa
Press
MSL
hPa
Rain
since 9 am
mm
Dir
 
Spd
km/h
Gust
km/h
Spd
kts
Gust
kts
23/11:30pm 32.4 29.1 11.6 28 12.3 S 20 24 11 13 1011.2 1010.4 0.0
23/11:00pm 32.7 28.9 11.3 27 12.6 S 22 30 12 16 1010.9 1010.1 0.0
23/10:30pm 33.0 28.9 11.5 27 12.7 S 24 33 13 18 1010.4 1009.6 0.0
23/10:00pm 33.1 28.3 11.6 27 12.7 SSE 28 37 15 20 1010.4 1009.6 0.0
23/09:30pm 33.6 28.2 10.9 25 13.3 SSE 30 43 16 23 1009.7 1008.9 0.0
23/09:00pm 34.2 29.3 11.4 25 13.5 SSE 28 37 15 20 1010.2 1009.4 0.0
23/08:30pm 35.0 30.9 11.4 24 14.0 S 24 33 13 18 1010.4 1009.6 0.0
23/08:00pm 35.4 31.2 11.1 23 14.4 SSE 24 30 13 16 1009.9 1009.0 0.0
23/07:30pm 36.0 32.3 11.6 23 14.6 SSE 22 30 12 16 1009.7 1008.9 0.0
23/07:00pm 36.4 31.5 11.3 22 15.0 S 28 33 15 18 1008.7 1007.9 0.0
23/06:30pm 37.1 32.1 11.1 21 15.5 S 28 35 15 19 1008.2 1007.4 0.0
23/06:00pm 37.8 32.1 11.0 20 16.0 S 32 41 17 22 1008.2 1007.4 0.0
23/05:30pm 37.9 31.4 10.3 19 16.3 S 35 44 19 24 1008.1 1007.3 0.0
23/05:00pm 39.5 33.7 11.6 19 17.0 SSW 33 43 18 23 1007.9 1007.1 0.0
23/04:30pm 40.2 35.7 11.3 18 17.5 S 26 33 14 18 1008.1 1007.3 0.0
23/04:00pm 40.4 34.9 10.6 17 17.9 S 30 41 16 22 1008.4 1007.6 0.0
23/03:30pm 40.1 34.9 10.4 17 17.7 S 28 41 15 22 1008.5 1007.7 0.0
23/03:00pm 40.0 35.3 9.4 16 18.1 SSW 24 32 13 17 1008.7 1007.9 0.0
23/02:30pm 40.4 36.4 10.6 17 17.9 SSW 22 32 12 17 1009.1 1008.3 0.0
23/02:00pm 39.6 35.1 10.0 17 17.6 SW 24 33 13 18 1009.6 1008.8 0.0
23/01:30pm 39.8 35.8 11.8 19 17.0 SW 24 37 13 20 1010.2 1009.4 0.0
23/01:00pm 38.3 34.6 11.4 20 16.2 SSW 22 32 12 17 1010.5 1009.7 0.0
23/12:30pm 38.2 35.2 10.5 19 16.5 SSW 17 28 9 15 1010.6 1009.8 0.0
23/12:00pm 38.0 36.1 11.9 21 15.8 SW 13 19 7 10 1010.7 1009.9 0.0
23/11:30am 38.5 35.7 10.0 18 16.8 W 15 24 8 13 1010.7 1009.9 0.0
23/11:00am 36.0 35.2 11.6 23 14.6 SW 7 13 4 7 1010.5 1009.7 0.0
23/10:30am 34.3 33.0 12.6 27 13.1 SW 11 17 6 9 1010.6 1009.8 0.0
23/10:00am 33.4 30.9 12.4 28 12.6 SSW 17 20 9 11 1010.6 1009.8 0.0
23/09:30am 32.9 31.1 12.0 28 12.4 SW 13 17 7 9 1010.4 1009.6 0.0
23/09:00am 32.2 30.3 11.9 29 12.0 SW 13 17 7 9 1010.3 1009.5 0.6
23/08:30am 31.3 28.9 12.6 31 11.1 SW 17 22 9 12 1009.6 1008.8 0.6
23/08:00am 31.2 28.2 10.5 28 12.0 SW 17 20 9 11 1009.3 1008.5 0.6
23/07:30am 29.6 25.8 9.7 29 11.2 SW 20 26 11 14 1008.9 1008.1 0.6
23/07:00am 28.2 25.9 9.0 30 10.7 NW 11 13 6 7 1008.1 1007.3 0.6
23/06:30am 29.2 26.1 8.8 28 11.3 NNW 15 17 8 9 1007.8 1007.0 0.6
23/06:00am 29.8 27.1 8.8 27 11.7 NW 13 17 7 9 1007.6 1006.8 0.6
23/05:30am 29.5 26.8 9.1 28 11.4 WNW 13 17 7 9 1007.2 1006.4 0.6
23/05:00am 30.3 26.9 9.2 27 11.9 N 17 22 9 12 1006.9 1006.1 0.6
23/04:30am 29.7 26.9 8.7 27 11.7 N 13 15 7 8 1006.6 1005.8 0.6
23/04:00am 30.7 28.0 9.0 26 12.2 N 13 17 7 9 1006.6 1005.8 0.6
23/03:30am 31.8 28.4 9.3 25 12.8 N 17 20 9 11 1006.8 1006.0 0.6
23/03:00am 31.8 29.2 9.3 25 12.8 N 13 15 7 8 1007.3 1006.5 0.6
23/02:30am 33.2 29.8 9.3 23 13.6 NNW 17 20 9 11 1007.4 1006.6 0.6
23/02:03am 32.9 27.4 9.0 23 13.6 W 28 57 15 31 1007.9 1007.1 0.6
23/02:00am 32.0 27.1 10.1 26 12.6 W 26 37 14 20 1007.9 1007.1 0.6
23/01:30am 33.5 30.4 8.9 22 14.0 N 15 19 8 10 1007.1 1006.3 0.6
23/01:00am 33.6 29.7 9.6 23 13.8 N 20 24 11 13 1007.3 1006.5 0.6
23/12:30am 33.6 29.9 10.2 24 13.6 N 20 24 11 13 1007.3 1006.5 0.6
23/12:00am 33.8 30.2 10.4 24 13.7 NNE 20 24 11 13 1007.5 1006.7 0.6
 
Date/Time
EDT
Temp
°C
App
Temp
°C
Dew
Point
Rel
Hum
%
Delta-T
°C
Wind Press
QNH
hPa
Press
MSL
hPa
Rain
since 9 am
mm
Dir
 
Spd
km/h
Gust
km/h
Spd
kts
Gust
kts
22/11:30pm 34.2 30.5 10.1 23 14.0 NNE 20 26 11 14 1007.5 1006.7 0.6
22/11:00pm 34.2 30.1 10.1 23 14.0 NNE 22 30 12 16 1007.4 1006.6 0.6
22/10:30pm 33.4 30.0 10.7 25 13.3 NNE 19 22 10 12 1007.3 1006.5 0.6
22/10:00pm 34.2 30.6 10.7 24 13.8 NNE 20 26 11 14 1007.2 1006.4 0.6
22/09:30pm 34.1 30.3 11.3 25 13.5 NNE 22 28 12 15 1007.1 1006.3 0.6
22/09:00pm 34.5 32.7 11.0 24 13.9 NE 11 17 6 9 1007.1 1006.3 0.6
22/08:30pm 34.8 31.2 11.9 25 13.7 NNE 22 30 12 16 1007.1 1006.3 0.4
22/08:00pm 35.3 31.1 11.0 23 14.4 NNE 24 32 13 17 1006.8 1006.0 0.4
22/07:30pm 35.0 31.8 12.0 25 13.8 NNE 20 28 11 15 1006.6 1005.8 0.4
22/07:00pm 34.7 32.2 14.0 28 12.8 NNE 20 35 11 19 1006.6 1005.8 0.4
22/06:30pm 32.5 33.9 20.4 49 8.1 NNE 13 17 7 9 1006.6 1005.8 0.4
22/06:00pm 30.8 24.4 14.4 36 10.1 N 41 70 22 38 1007.3 1006.5 0.4
22/05:56pm 31.8 21.4 14.9 36 10.5 NNW 63 96 34 52 1007.0 1006.2 0.0
22/05:52pm 36.8 26.3 12.3 23 14.9 NNW 59 96 32 52 1005.6 1004.8 0.0
22/05:47pm 40.6 34.8 7.9 14 18.9 N 28 54 15 29 1007.0 1006.2 0.0
22/05:30pm 40.4 36.8 6.7 13 19.1 NNE 15 26 8 14 1006.1 1005.3 0.0
22/05:00pm 40.8 37.1 8.1 14 19.0 NNE 17 24 9 13 1006.5 1005.7 0.0
22/04:30pm 39.9 38.2 8.4 15 18.3 NE 7 19 4 10 1007.0 1006.2 0.0
22/04:00pm 39.5 36.6 8.1 15 18.1 E 13 24 7 13 1007.3 1006.5 0.0
22/03:30pm 38.6 35.7 8.3 16 17.5 E 13 20 7 11 1007.9 1007.1 0.0
22/03:00pm 38.8 36.0 8.5 16 17.6 ESE 13 22 7 12 1008.7 1007.9 0.0
22/02:30pm 37.7 33.8 8.5 17 16.8 SSE 19 28 10 15 1009.1 1008.3 0.0
22/02:00pm 37.8 33.1 9.4 18 16.6 SSE 24 32 13 17 1009.5 1008.7 0.0
22/01:30pm 37.2 31.7 10.5 20 15.8 S 30 35 16 19 1010.2 1009.4 0.0
22/01:10pm 35.8 30.0 10.8 22 14.8 S 32 50 17 27 1010.8 1010.0 0.0
22/01:00pm 35.6 26.5 8.4 19 15.5 SSW 46 52 25 28 1010.9 1010.1 0.0
22/12:58pm 36.4 29.7 8.3 18 16.0 SW 33 50 18 27 1011.0 1010.2 0.0
22/12:30pm 38.3 34.8 7.1 15 17.6 N 15 30 8 16 1010.7 1009.9 0.0
22/12:00pm 37.4 33.5 7.3 16 17.0 N 17 28 9 15 1010.6 1009.8 0.0
22/11:30am 38.1 32.8 7.0 15 17.5 N 24 39 13 21 1010.2 1009.4 0.0
22/11:00am 36.8 31.7 5.9 15 17.0 NNE 22 32 12 17 1010.7 1009.9 0.0
22/10:30am 36.0 30.8 7.1 17 16.2 N 24 30 13 16 1010.9 1010.1 0.0
22/10:00am 34.8 29.9 7.0 18 15.4 NE 22 35 12 19 1010.7 1009.9 0.0
22/09:30am 33.5 28.0 7.5 20 14.5 NE 26 32 14 17 1010.6 1009.8 0.0
22/09:00am 32.1 27.0 7.7 22 13.5 NE 24 26 13 14 1010.7 1009.9 0.0
22/08:30am 29.3 25.8 7.2 25 12.0 E 15 20 8 11 1010.6 1009.8 0.0
22/08:00am 27.6 23.7 6.9 27 11.1 E 17 20 9 11 1010.6 1009.8 0.0
22/07:30am 26.3 22.7 6.9 29 10.3 E 15 19 8 10 1010.4 1009.6 0.0
22/07:00am 25.1 21.5 6.8 31 9.6 ESE 15 17 8 9 1010.2 1009.4 0.0
22/06:30am 23.9 20.2 6.2 32 9.1 ESE 15 17 8 9 1010.1 1009.3 0.0
22/06:00am 23.7 20.0 6.5 33 8.9 ESE 15 17 8 9 1009.7 1008.9 0.0
22/05:30am 23.4 19.7 6.2 33 8.8 ESE 15 17 8 9 1009.7 1008.9 0.0
22/05:00am 23.9 20.7 6.7 33 9.0 ESE 13 15 7 8 1009.6 1008.8 0.0
22/04:30am 22.8 19.5 6.6 35 8.4 E 13 15 7 8 1009.5 1008.7 0.0
22/04:00am 23.0 19.3 6.3 34 8.6 E 15 15 8 8 1009.4 1008.6 0.0
22/03:30am 23.1 19.4 6.4 34 8.6 E 15 15 8 8 1009.5 1008.7 0.0
22/03:00am 23.6 20.3 6.4 33 8.9 E 13 15 7 8 1009.6 1008.8 0.0
22/02:30am 24.0 20.9 7.2 34 8.8 E 13 15 7 8 1010.0 1009.1 0.0
22/02:00am 24.6 21.8 6.8 32 9.3 ESE 11 13 6 7 1010.1 1009.3 0.0
22/01:30am 25.6 22.5 7.2 31 9.8 E 13 15 7 8 1010.3 1009.5 0.0
22/01:00am 27.5 24.2 7.9 29 10.6 ESE 15 19 8 10 1010.7 1009.9 0.0
22/12:30am 27.9 24.4 7.2 27 11.1 S 15 19 8 10 1010.9 1010.1 0.0
22/12:00am 27.3 24.3 6.1 26 11.2 ESE 11 13 6 7 1010.9 1010.1 0.0
 
Date/Time
EDT
Temp
°C
App
Temp
°C
Dew
Point
Rel
Hum
%
Delta-T
°C
Wind Press
QNH
hPa
Press
MSL
hPa
Rain
since 9 am
mm
Dir
 
Spd
km/h
Gust
km/h
Spd
kts
Gust
kts
21/11:30pm 27.8 24.4 6.0 25 11.5 E 13 13 7 7 1010.9 1010.1 0.0
21/11:00pm 29.1 26.6 6.5 24 12.1 ESE 9 11 5 6 1011.0 1010.2 0.0
21/10:30pm 30.0 27.5 6.6 23 12.6 SE 9 11 5 6 1011.0 1010.2 0.0
21/10:00pm 30.8 28.5 7.3 23 12.9 SE 9 11 5 6 1010.7 1009.9 0.0
21/09:30pm 31.3 28.9 7.1 22 13.2 SSE 9 11 5 6 1010.4 1009.6 0.0
21/09:00pm 32.3 29.6 7.2 21 13.8 S 11 13 6 7 1010.2 1009.4 0.0
21/08:30pm 33.0 29.9 7.1 20 14.3 S 13 19 7 10 1010.0 1009.1 0.0
21/08:00pm 33.9 30.9 7.8 20 14.6 SSW 13 20 7 11 1009.6 1008.8 0.0
21/07:30pm 34.5 31.1 7.5 19 15.1 S 15 20 8 11 1009.3 1008.5 0.0
21/07:00pm 35.4 32.4 7.5 18 15.7 SW 13 20 7 11 1009.1 1008.3 0.0
21/06:30pm 35.9 31.4 7.0 17 16.1 WSW 20 28 11 15 1008.7 1007.9 0.0
21/06:00pm 35.6 31.6 6.8 17 16.0 SSW 17 28 9 15 1008.7 1007.9 0.0
21/05:30pm 36.5 31.9 6.6 16 16.6 W 20 30 11 16 1008.7 1007.9 0.0
21/05:00pm 36.4 31.8 6.6 16 16.6 W 20 32 11 17 1008.9 1008.1 0.0
21/04:30pm 35.8 32.6 7.0 17 16.1 W 13 17 7 9 1009.1 1008.3 0.0
21/04:00pm 35.5 33.4 8.3 19 15.5 WNW 9 19 5 10 1009.3 1008.5 0.0
21/03:30pm 36.1 31.3 8.8 19 15.7 W 24 33 13 18 1009.9 1009.0 0.0
21/03:00pm 34.8 31.6 9.9 22 14.5 SW 17 28 9 15 1010.3 1009.5 0.0
21/02:30pm 34.2 32.7 10.7 24 13.8 S 9 24 5 13 1010.6 1009.8 0.0
21/02:00pm 34.0 31.0 10.6 24 13.7 WSW 17 35 9 19 1011.1 1010.3 0.0
21/01:30pm 32.4 30.3 11.0 27 12.5 SW 13 24 7 13 1011.6 1010.8 0.0
21/01:00pm 32.9 29.7 12.0 28 12.4 SSW 20 26 11 14 1011.9 1011.1 0.0
21/12:30pm 32.2 30.7 11.9 29 12.0 WSW 11 20 6 11 1012.2 1011.4 0.0
21/12:00pm 31.1 29.5 12.9 32 10.9 W 13 24 7 13 1012.4 1011.6 0.0
21/11:30am 30.1 29.0 13.0 35 10.2 S 11 20 6 11 1012.5 1011.7 0.0
21/11:00am 29.6 28.0 12.9 35 9.9 S 13 20 7 11 1012.5 1011.7 0.0
21/10:30am 29.2 27.8 13.4 38 9.5 S 13 20 7 11 1012.5 1011.7 0.0
21/10:00am 28.0 26.4 12.8 39 9.0 S 13 19 7 10 1012.5 1011.7 0.0
21/09:30am 27.0 24.7 11.9 39 8.7 S 15 24 8 13 1012.5 1011.7 0.0
21/09:00am 27.0 24.5 12.3 40 8.6 SSE 17 22 9 12 1012.2 1011.4 0.0
21/08:30am 26.6 23.5 11.5 39 8.7 S 19 24 10 13 1012.1 1011.3 0.0
21/08:00am 25.7 23.9 10.7 39 8.5 S 11 13 6 7 1011.8 1011.0 0.0
21/07:30am 24.2 22.3 10.5 42 7.6 S 11 13 6 7 1011.4 1010.6 0.0
21/07:00am 22.3 20.2 9.8 45 6.8 S 11 11 6 6 1010.9 1010.1 0.0
21/06:30am 21.4 19.3 9.6 47 6.4 S 11 13 6 7 1010.5 1009.7 0.0
21/06:00am 21.5 19.4 9.7 47 6.4 S 11 13 6 7 1010.2 1009.4 0.0
21/05:30am 21.4 19.2 9.3 46 6.5 S 11 13 6 7 1010.0 1009.1 0.0
21/05:00am 21.5 19.2 9.1 45 6.7 SSW 11 13 6 7 1009.7 1008.9 0.0
21/04:30am 21.9 19.3 9.4 45 6.8 SSW 13 13 7 7 1009.6 1008.8 0.0

Other Formats:

Comma delimited format used in spreadsheet applications
http://www.bom.gov.au/fwo/IDN60801/IDN60801.95699.axf

JavaScript Object Notation format (JSON) in row-major order
http://www.bom.gov.au/fwo/IDN60801/IDN60801.95699.json